Terminal Aerodrome Forecast
Issued by NWS Charleston, WV

Current Version | Previous Version | Graphics & Text | Print | Product List | Glossary On
Versions: 1 2 3 4 5 6 7 8 9 10 11 12 13 14 15 16 17 18 19 20 21 22 23 24 25 26 27
000
FTUS41 KRLX 232320
TAFCRW
TAF
KCRW 232320Z 2400/2424 10007G15KT P6SM -RA OVC070
     FM240200 11010KT P6SM OVC060
     FM241700 11007KT P6SM -SHRA OVC030
     FM241900 11007KT P6SM -SHRA OVC035
     FM242000 11006KT P6SM OVC040=

USA.gov is the U.S. government's official web portal to all federal, state and local government web resources and services.